createdAt,value
2023-03-08T00:01:57.307Z,4.10
2023-03-08T00:04:25.472Z,4.10
2023-03-08T00:06:53.255Z,4.10
2023-03-08T00:09:22.329Z,4.10
2023-03-08T00:11:50.104Z,4.10
2023-03-08T00:14:18.629Z,4.10
2023-03-08T00:16:46.400Z,4.10
2023-03-08T00:19:14.315Z,4.10
2023-03-08T00:21:42.082Z,4.00
2023-03-08T00:24:10.147Z,4.10
2023-03-08T00:26:39.261Z,4.10
2023-03-08T00:29:07.136Z,4.10
2023-03-08T00:31:35.066Z,4.00
2023-03-08T00:34:02.834Z,4.10
2023-03-08T00:36:30.651Z,4.10
2023-03-08T00:38:58.418Z,4.10
2023-03-08T00:41:26.132Z,4.10
2023-03-08T00:43:55.297Z,4.10
2023-03-08T00:46:23.231Z,4.10
2023-03-08T00:48:51.024Z,4.10
2023-03-08T00:51:20.147Z,4.10
2023-03-08T00:53:48.242Z,4.10
2023-03-08T00:56:16.264Z,4.10
2023-03-08T00:58:44.145Z,4.00
2023-03-08T05:00:49.072Z,4.80
2023-03-08T05:03:17.021Z,4.70
2023-03-08T05:08:17.155Z,4.50
2023-03-08T05:13:16.686Z,4.60
2023-03-08T05:15:44.425Z,4.70
2023-03-08T05:18:13.734Z,4.80
2023-03-08T05:20:41.480Z,4.90
2023-03-08T05:23:09.235Z,4.90
2023-03-08T05:25:44.500Z,5.00
2023-03-08T05:28:16.031Z,5.00
2023-03-08T05:30:43.890Z,5.00
2023-03-08T05:33:13.001Z,5.10
2023-03-08T05:35:40.808Z,5.10
2023-03-08T05:38:08.573Z,5.10
2023-03-08T05:40:36.312Z,5.10
2023-03-08T05:43:04.043Z,5.10
2023-03-08T05:48:00.186Z,5.10
2023-03-08T05:50:29.325Z,5.00
2023-03-08T05:52:57.153Z,5.00
2023-03-08T05:55:25.500Z,5.00
2023-03-08T05:57:53.201Z,5.00
2023-03-08T06:00:21.589Z,4.90
2023-03-08T06:02:49.371Z,4.80
2023-03-08T06:05:17.220Z,4.70
2023-03-08T06:07:46.280Z,4.70
2023-03-08T06:10:14.178Z,4.60
2023-03-08T06:12:41.883Z,4.70
2023-03-08T06:15:10.360Z,4.70
2023-03-08T06:17:38.061Z,4.70
2023-03-08T06:20:06.618Z,4.60
2023-03-08T06:22:34.444Z,4.50
2023-03-08T06:25:04.028Z,4.40
2023-03-08T06:27:31.722Z,4.50
2023-03-08T06:29:59.450Z,4.50
2023-03-08T06:32:27.197Z,4.50
2023-03-08T06:34:55.078Z,4.60
2023-03-08T06:37:22.873Z,4.60
2023-03-08T06:39:50.690Z,4.60
2023-03-08T06:42:23.969Z,4.60
2023-03-08T06:44:59.115Z,4.60
2023-03-08T06:47:28.503Z,5.90
2023-03-08T06:49:56.276Z,4.60
2023-03-08T06:52:24.057Z,4.70
2023-03-08T06:54:51.867Z,4.60
2023-03-08T06:57:20.973Z,4.60
2023-03-08T06:59:48.734Z,4.60
2023-03-08T07:02:16.460Z,4.60
2023-03-08T07:04:44.295Z,4.70
2023-03-08T07:07:12.270Z,4.70
2023-03-08T07:09:40.055Z,4.80
2023-03-08T07:12:08.262Z,3.60
2023-03-08T07:14:37.510Z,4.80
2023-03-08T07:17:05.298Z,4.80
2023-03-08T07:22:01.149Z,4.90
2023-03-08T07:24:28.927Z,4.90
2023-03-08T07:26:56.697Z,4.80
2023-03-08T07:29:24.430Z,4.80
2023-03-08T07:31:53.543Z,4.80
2023-03-08T07:34:21.324Z,4.90
2023-03-08T07:36:49.979Z,4.80
2023-03-08T07:39:18.154Z,4.80
2023-03-08T07:41:47.531Z,4.70
2023-03-08T07:44:15.458Z,4.70
2023-03-08T07:46:43.310Z,4.70
2023-03-08T07:49:12.503Z,4.70
2023-03-08T07:51:40.300Z,4.70
2023-03-08T07:54:10.263Z,4.70
2023-03-08T07:56:38.084Z,4.70
2023-03-08T07:59:05.849Z,4.70
2023-03-08T08:01:33.930Z,4.60
2023-03-08T08:04:01.779Z,4.60
2023-03-08T08:06:31.175Z,4.50
2023-03-08T08:08:59.107Z,4.50
2023-03-08T08:11:26.829Z,4.60
2023-03-08T08:13:54.606Z,4.60
2023-03-08T08:16:22.527Z,4.50
2023-03-08T08:18:52.844Z,4.50
2023-03-08T08:21:21.168Z,4.50
2023-03-08T08:23:50.658Z,4.50
2023-03-08T08:26:21.288Z,4.40
2023-03-08T08:28:51.950Z,4.50
2023-03-08T08:31:22.631Z,4.50
2023-03-08T08:33:50.862Z,4.50
2023-03-08T08:36:20.697Z,4.40
2023-03-08T08:38:50.661Z,4.40
2023-03-08T08:41:19.845Z,4.40
2023-03-08T08:43:48.531Z,4.40
2023-03-08T08:46:17.102Z,4.40
2023-03-08T08:48:45.147Z,4.40
2023-03-08T08:51:14.583Z,4.40
2023-03-08T08:53:44.142Z,4.40
2023-03-08T08:56:27.478Z,4.40
2023-03-08T08:58:56.342Z,4.40
2023-03-08T09:01:26.114Z,4.50
2023-03-08T09:06:24.078Z,4.60
2023-03-08T09:08:52.900Z,4.70
2023-03-08T09:11:22.617Z,4.70
2023-03-08T09:13:50.822Z,4.70
2023-03-08T09:16:20.050Z,4.80
2023-03-08T09:18:48.158Z,4.90
2023-03-08T09:21:16.680Z,4.90
2023-03-08T09:23:45.500Z,4.90
2023-03-08T09:26:13.499Z,4.60
2023-03-08T09:28:42.694Z,4.60
2023-03-08T09:31:14.832Z,4.70
2023-03-08T09:33:44.867Z,4.70
2023-03-08T09:36:13.104Z,4.70
2023-03-08T09:38:40.922Z,4.60
2023-03-08T09:41:25.837Z,4.60
2023-03-08T09:44:10.300Z,4.60
2023-03-08T09:46:46.130Z,4.60
2023-03-08T09:49:19.538Z,4.70
2023-03-08T09:51:51.773Z,4.70
2023-03-08T09:54:23.654Z,4.60
2023-03-08T09:56:53.067Z,4.60
2023-03-08T09:59:27.818Z,4.60
2023-03-08T10:02:03.342Z,4.70
2023-03-08T10:05:05.917Z,4.70
2023-03-08T10:07:49.429Z,4.60
2023-03-08T10:10:26.452Z,4.60
2023-03-08T10:13:09.424Z,4.60
2023-03-08T10:15:42.920Z,4.50
2023-03-08T10:18:17.478Z,4.40
2023-03-08T10:20:46.301Z,4.50
2023-03-08T10:23:17.268Z,4.50
2023-03-08T10:25:46.423Z,4.60
2023-03-08T10:28:16.343Z,4.60
2023-03-08T10:30:50.454Z,4.70
2023-03-08T10:33:20.536Z,4.70
2023-03-08T10:35:56.777Z,4.80
2023-03-08T10:38:27.461Z,4.80
2023-03-08T10:41:01.264Z,4.90
2023-03-08T10:43:31.171Z,4.90
2023-03-08T10:46:02.866Z,4.90
2023-03-08T10:48:30.665Z,4.90
2023-03-08T10:51:02.947Z,4.80
2023-03-08T10:53:31.279Z,4.80
2023-03-08T10:56:01.070Z,4.90
2023-03-08T10:58:32.698Z,5.00
2023-03-08T11:01:04.129Z,5.00
2023-03-08T11:03:32.415Z,5.00
2023-03-08T11:06:01.909Z,5.00
2023-03-08T11:08:32.558Z,5.10
2023-03-08T11:11:09.886Z,5.10
2023-03-08T11:13:39.411Z,5.10
2023-03-08T11:16:39.395Z,5.10
2023-03-08T11:19:17.093Z,5.00
2023-03-08T11:21:56.184Z,4.90
2023-03-08T11:24:31.680Z,4.90
2023-03-08T11:27:12.718Z,4.90
2023-03-08T11:29:52.194Z,4.90
2023-03-08T11:32:38.219Z,4.80
2023-03-08T11:35:13.253Z,4.80
2023-03-08T11:37:46.414Z,4.80
2023-03-08T11:40:24.795Z,4.80
2023-03-08T11:43:03.748Z,4.80
2023-03-08T11:45:37.719Z,4.80
2023-03-08T11:48:31.727Z,4.90
2023-03-08T11:51:07.649Z,5.00
2023-03-08T11:53:45.443Z,5.00
2023-03-08T11:56:37.312Z,5.10
2023-03-08T11:59:12.465Z,5.10
2023-03-08T12:01:47.059Z,5.20
2023-03-08T12:04:19.535Z,5.20
2023-03-08T12:06:48.905Z,5.20
2023-03-08T12:09:27.112Z,5.30
2023-03-08T12:11:59.961Z,5.30
2023-03-08T12:14:31.866Z,5.30
2023-03-08T12:17:06.489Z,5.40
2023-03-08T12:19:42.892Z,5.40
2023-03-08T12:22:24.461Z,5.50
2023-03-08T12:24:57.012Z,5.50
2023-03-08T12:27:31.152Z,5.50
2023-03-08T12:30:12.266Z,5.50
2023-03-08T12:32:42.467Z,5.50
2023-03-08T12:35:28.229Z,5.50
2023-03-08T12:37:57.670Z,5.50
2023-03-08T12:40:32.287Z,5.40
2023-03-08T12:43:10.133Z,5.40
2023-03-08T12:45:38.919Z,5.40
2023-03-08T12:48:18.377Z,5.40
2023-03-08T12:51:00.321Z,5.40
2023-03-08T12:53:34.369Z,5.40
2023-03-08T12:56:05.624Z,5.40
2023-03-08T12:58:35.261Z,5.50
2023-03-08T13:01:06.521Z,5.50
2023-03-08T13:03:39.975Z,5.50
2023-03-08T13:06:38.063Z,5.50
2023-03-08T13:09:14.572Z,5.50
2023-03-08T13:11:46.904Z,5.50
2023-03-08T13:14:27.707Z,5.50
2023-03-08T13:16:55.585Z,5.50
2023-03-08T13:19:27.960Z,5.50
2023-03-08T13:22:06.139Z,5.50
2023-03-08T13:24:40.458Z,5.60
2023-03-08T13:27:23.454Z,5.60
2023-03-08T13:32:21.758Z,5.60
2023-03-08T13:34:59.820Z,5.60
2023-03-08T13:37:31.180Z,5.60
2023-03-08T13:40:00.344Z,5.70
2023-03-08T13:42:30.037Z,5.70
2023-03-08T13:45:09.287Z,5.70
2023-03-08T13:47:40.832Z,5.70
2023-03-08T13:50:17.756Z,5.70
2023-03-08T13:52:47.169Z,5.70
2023-03-08T13:55:21.176Z,5.70
2023-03-08T13:57:52.297Z,5.70
2023-03-08T14:00:29.929Z,5.80
2023-03-08T14:02:58.753Z,5.70
2023-03-08T14:05:28.588Z,5.70
2023-03-08T14:07:59.974Z,5.70
2023-03-08T14:10:35.415Z,5.80
2023-03-08T14:13:04.150Z,5.70
2023-03-08T14:15:35.138Z,5.80
2023-03-08T14:18:04.776Z,5.80
2023-03-08T14:20:32.988Z,5.80
2023-03-08T14:23:02.244Z,5.80
2023-03-08T14:25:31.836Z,5.80
2023-03-08T14:28:00.042Z,5.70
2023-03-08T14:30:29.859Z,5.70
2023-03-08T14:33:07.079Z,5.70
2023-03-08T14:35:37.264Z,5.70
2023-03-08T14:38:14.152Z,5.60
2023-03-08T14:40:48.286Z,5.60
2023-03-08T14:43:19.352Z,5.60
2023-03-08T14:45:54.244Z,5.60
2023-03-08T14:48:25.545Z,5.50
2023-03-08T14:50:56.589Z,5.50
2023-03-08T14:53:30.702Z,5.50
2023-03-08T14:55:59.450Z,5.50
2023-03-08T14:58:30.415Z,5.50
2023-03-08T15:01:00.877Z,5.50
2023-03-08T15:03:29.662Z,5.50
2023-03-08T15:05:58.413Z,5.50
2023-03-08T15:08:27.725Z,5.50
2023-03-08T15:10:55.566Z,5.50
2023-03-08T15:13:24.578Z,5.50
2023-03-08T15:15:52.474Z,5.50
2023-03-08T15:18:20.820Z,5.60
2023-03-08T15:20:51.450Z,5.60
2023-03-08T15:23:22.847Z,5.50
2023-03-08T15:25:52.119Z,5.50
2023-03-08T15:28:21.614Z,5.50
2023-03-08T15:30:50.454Z,5.50
2023-03-08T15:33:18.184Z,5.50
2023-03-08T15:35:46.626Z,5.60
2023-03-08T15:38:15.488Z,5.50
2023-03-08T15:40:43.991Z,5.50
2023-03-08T15:43:13.088Z,5.50
2023-03-08T15:45:40.957Z,5.50
2023-03-08T15:48:13.160Z,5.50
2023-03-08T15:50:41.227Z,5.60
2023-03-08T15:53:09.251Z,5.60
2023-03-08T15:55:38.672Z,5.60
2023-03-08T15:58:08.655Z,5.60
2023-03-08T16:00:38.316Z,5.70
2023-03-08T16:03:06.175Z,5.70
2023-03-08T16:05:34.071Z,5.70
2023-03-08T16:08:03.821Z,5.70
2023-03-08T16:10:40.403Z,5.80
2023-03-08T16:13:08.886Z,5.80
2023-03-08T16:15:39.808Z,5.80
2023-03-08T16:18:07.588Z,5.80
2023-03-08T16:20:35.337Z,5.70
2023-03-08T16:23:03.370Z,5.70
2023-03-08T16:25:31.247Z,5.70
2023-03-08T16:27:59.097Z,5.70
2023-03-08T16:30:26.906Z,5.70
2023-03-08T16:32:56.056Z,5.60
2023-03-08T16:35:23.861Z,5.70
2023-03-08T16:37:54.053Z,5.70
2023-03-08T16:40:21.869Z,5.70
2023-03-08T16:42:51.831Z,5.70
2023-03-08T16:45:19.885Z,7.00
2023-03-08T16:47:47.716Z,5.70
2023-03-08T16:50:17.040Z,5.80
2023-03-08T16:52:44.857Z,5.70
2023-03-08T16:55:13.133Z,5.70
2023-03-08T16:57:41.153Z,5.70
2023-03-08T17:00:12.570Z,5.70
2023-03-08T17:02:40.550Z,5.70
2023-03-08T17:05:10.878Z,5.70
2023-03-08T17:07:40.039Z,5.70
2023-03-08T17:10:09.103Z,5.60
2023-03-08T17:12:36.934Z,5.60
2023-03-08T17:15:05.606Z,5.60
2023-03-08T17:17:33.355Z,5.50
2023-03-08T17:20:01.215Z,5.50
2023-03-08T17:22:29.213Z,5.50
2023-03-08T17:24:58.306Z,5.50
2023-03-08T17:27:26.229Z,5.40
2023-03-08T17:29:54.001Z,5.30
2023-03-08T17:32:21.938Z,5.30
2023-03-08T17:34:49.823Z,5.30
2023-03-08T17:37:18.693Z,5.40
2023-03-08T17:39:47.436Z,5.50
2023-03-08T17:42:16.501Z,5.70
2023-03-08T17:44:44.427Z,5.70
2023-03-08T17:47:13.823Z,5.90
2023-03-08T17:49:41.732Z,6.00
2023-03-08T17:52:09.731Z,6.30
2023-03-08T17:54:37.573Z,6.50
2023-03-08T17:57:05.394Z,6.70
2023-03-08T17:59:34.476Z,6.90
2023-03-08T18:02:02.211Z,7.00
2023-03-08T18:04:30.723Z,7.00
2023-03-08T18:06:59.118Z,7.10
2023-03-08T18:09:29.776Z,7.20
2023-03-08T18:11:57.649Z,7.30
2023-03-08T18:14:37.792Z,7.40
2023-03-08T18:17:09.270Z,7.40
2023-03-08T18:19:37.117Z,7.50
2023-03-08T18:22:05.639Z,7.50
2023-03-08T18:24:33.990Z,7.50
2023-03-08T18:27:05.282Z,7.50
2023-03-08T18:29:35.583Z,7.50
2023-03-08T18:32:03.826Z,7.50
2023-03-08T18:34:33.018Z,7.50
2023-03-08T18:37:00.994Z,7.50
2023-03-08T18:39:29.053Z,7.50
2023-03-08T18:41:58.025Z,7.50
2023-03-08T18:44:25.959Z,7.60
2023-03-08T18:46:54.014Z,7.60
2023-03-08T18:49:24.196Z,7.50
2023-03-08T18:51:53.890Z,7.60
2023-03-08T18:54:22.353Z,7.60
2023-03-08T18:56:53.580Z,7.60
2023-03-08T18:59:22.079Z,7.60
2023-03-08T19:01:51.099Z,7.60
2023-03-08T19:04:19.470Z,7.60
2023-03-08T19:06:47.385Z,7.60
2023-03-08T19:09:18.403Z,7.70
2023-03-08T19:11:47.925Z,7.70
2023-03-08T19:14:17.272Z,7.70
2023-03-08T19:16:45.206Z,7.70
2023-03-08T19:19:15.412Z,7.70
2023-03-08T19:21:45.017Z,7.70
2023-03-08T19:26:47.029Z,7.70
2023-03-08T19:29:16.721Z,7.70
2023-03-08T19:31:46.979Z,7.70
2023-03-08T19:34:15.359Z,7.70
2023-03-08T19:36:45.025Z,7.80
2023-03-08T19:39:16.348Z,7.70
2023-03-08T19:41:45.541Z,7.80
2023-03-08T19:44:13.247Z,7.70
2023-03-08T19:46:41.277Z,7.80
2023-03-08T19:49:13.616Z,7.80
2023-03-08T19:51:41.775Z,7.80
2023-03-08T19:54:10.321Z,7.80
2023-03-08T19:56:38.109Z,7.80
2023-03-08T19:59:07.602Z,7.80
2023-03-08T20:01:35.653Z,7.80
2023-03-08T20:04:03.579Z,7.80
2023-03-08T20:06:33.433Z,7.70
2023-03-08T20:09:02.309Z,7.70
2023-03-08T20:11:30.839Z,7.70
2023-03-08T20:13:58.608Z,7.70
2023-03-08T20:16:28.627Z,7.80
2023-03-08T20:18:57.412Z,7.80
2023-03-08T20:21:27.742Z,7.80
2023-03-08T20:23:56.553Z,7.80
2023-03-08T20:26:25.059Z,7.80
2023-03-08T20:28:53.519Z,7.90
2023-03-08T20:31:21.607Z,7.90
2023-03-08T20:33:51.067Z,7.90
2023-03-08T20:36:19.168Z,7.90
2023-03-08T20:38:47.185Z,7.90
2023-03-08T20:41:17.725Z,7.90
2023-03-08T20:43:46.820Z,7.90
2023-03-08T20:46:16.331Z,7.90
2023-03-08T20:48:45.836Z,8.00
2023-03-08T20:51:16.596Z,8.00
2023-03-08T20:53:45.617Z,8.00
2023-03-08T20:56:15.530Z,8.00
2023-03-08T20:58:43.851Z,8.00
2023-03-08T21:01:12.374Z,8.00
2023-03-08T21:03:40.766Z,8.00
2023-03-08T21:06:18.671Z,8.00
2023-03-08T21:08:46.790Z,8.00
2023-03-08T21:11:14.601Z,8.00
2023-03-08T21:13:42.393Z,8.00
2023-03-08T21:18:56.100Z,8.00
2023-03-08T21:21:30.157Z,8.00
2023-03-08T21:23:59.571Z,7.70
2023-03-08T21:26:28.665Z,8.00
2023-03-08T21:28:57.801Z,8.00
2023-03-08T21:31:26.316Z,8.00
2023-03-08T21:33:54.464Z,8.00
2023-03-08T21:36:22.754Z,8.00
2023-03-08T21:39:06.523Z,8.00
2023-03-08T21:41:38.173Z,8.00
2023-03-08T21:44:07.557Z,8.00
2023-03-08T21:46:37.312Z,8.00
2023-03-08T21:49:13.859Z,8.10
2023-03-08T21:51:41.580Z,8.10
2023-03-08T21:54:10.715Z,8.10
2023-03-08T21:56:38.488Z,8.10
2023-03-08T21:59:06.552Z,8.10
2023-03-08T22:01:34.659Z,8.10
2023-03-08T22:04:03.655Z,8.10
2023-03-08T22:06:31.908Z,8.10
2023-03-08T22:08:59.674Z,8.10
2023-03-08T22:11:28.860Z,8.10
2023-03-08T22:13:58.281Z,8.10
2023-03-08T22:16:27.532Z,8.10
2023-03-08T22:18:56.451Z,8.10
2023-03-08T22:21:24.627Z,8.10
2023-03-08T22:23:52.497Z,8.10
2023-03-08T22:26:20.525Z,8.10
2023-03-08T22:28:49.696Z,8.10
2023-03-08T22:31:20.079Z,8.10
2023-03-08T22:33:48.373Z,8.10
2023-03-08T22:36:18.014Z,8.10
2023-03-08T22:38:46.035Z,8.10
2023-03-08T22:41:15.519Z,8.00
2023-03-08T22:43:44.149Z,8.00
2023-03-08T22:46:16.086Z,8.00
2023-03-08T22:48:44.906Z,8.00
2023-03-08T22:51:13.518Z,8.00
2023-03-08T22:53:41.569Z,8.10
2023-03-08T22:56:20.829Z,8.10
2023-03-08T22:58:48.827Z,8.10
2023-03-08T23:01:20.157Z,8.10
2023-03-08T23:03:49.516Z,8.10
2023-03-08T23:06:18.838Z,8.10
2023-03-08T23:08:47.260Z,8.10
2023-03-08T23:11:15.235Z,8.20
2023-03-08T23:13:43.054Z,8.20
2023-03-08T23:16:13.657Z,8.20
2023-03-08T23:18:43.221Z,8.30
2023-03-08T23:21:13.600Z,8.30
2023-03-08T23:23:41.458Z,8.30
2023-03-08T23:26:12.126Z,8.40
2023-03-08T23:28:40.198Z,8.40
2023-03-08T23:31:10.124Z,8.50
2023-03-08T23:33:37.996Z,8.50
2023-03-08T23:36:08.516Z,8.50
2023-03-08T23:38:36.735Z,8.50
2023-03-08T23:41:05.789Z,8.60
2023-03-08T23:43:33.912Z,8.60
2023-03-08T23:46:05.083Z,8.60
2023-03-08T23:48:32.836Z,8.70
2023-03-08T23:51:03.371Z,8.70
2023-03-08T23:53:32.493Z,8.70
2023-03-08T23:56:00.485Z,8.80
2023-03-08T23:58:28.800Z,8.80
